x

Halibut Bank (46146) Wave Buoy

7:00am - Tue 22nd Jul 2014 All times are PDT. -7 hours from GMT.

  • Sig Wave height 1.3ft
  • Peak Period 3s
  • Wind
    16mph, 18mph gusts
  • Sea Temp 64°f
  • 空気 Temp 59°f
  • Sea Pressure 1016.2mb
  • Halibut Bank
  • Halibut Bank

More Historic Weather Station data

Upgrade to MSW Pro to gain access to the past 30 days of data for over 8000 Wavebouys and Weather Stations around the globe.

Join Pro

Comparision Forecast

View Surf forecast
   
Tue 07/22 7:00am 1.3ft 3s 16 18 mph 1016.2mb 64f 59f
6:00am 1.3ft 3s 13 16 mph 1015.9mb 64f 59f
5:00am 1.3ft 3s 13 16 mph 1015.7mb 64f 60f
4:00am 1.3ft 3s 13 16 mph 1015.5mb 64f 60f
3:00am 1ft 3s 13 18 mph 1015.3mb 64f 61f
2:00am 1ft 3s 11 13 mph 1015.3mb 64f 62f
1:00am 0.7ft 3s 13 18 mph 1015.1mb 65f 62f
12:00am 0.7ft 3s 13 16 mph 1014.7mb 65f 62f
Mon 07/21 11:00pm 0.7ft 3s 11
mph
1014.9mb 65f 62f
10:00pm 0.7ft 3s 7 9 mph 1014.9mb 66f 62f
9:00pm 0.7ft 3s 9 11 mph 1014.8mb 66f 63f
8:00pm 0.7ft 3s 7 9 mph 1014.5mb 66f 63f
7:00pm 0.7ft 3s 11 13 mph 1014.6mb 66f 63f
6:00pm 0.7ft 7s 9 11 mph 1014.9mb 66f 63f
5:00pm 1ft 3s 11 13 mph 1015.1mb 66f 62f
4:00pm 1ft 3s 11
mph
1015.7mb 66f 62f
3:00pm 1ft 3s 9 11 mph 1016.1mb 65f 61f
2:00pm 1ft 3s 11 13 mph 1016.3mb 65f 60f
1:00pm 1ft 3s 13 16 mph 1016.5mb 65f 60f
12:00pm 1.3ft 3s 11 13 mph 1016.7mb 65f 59f
11:00am 1.3ft 3s 11 13 mph 1017mb 65f 58f
10:00am 1.6ft 3s 16 18 mph 1017.1mb 65f 58f
9:00am 1.6ft 3s 18 20 mph 1017.1mb 65f 57f
8:00am 1.6ft 3s 16 18 mph 1016.9mb 65f 58f
7:00am 1.3ft 3s 16 18 mph 1016.2mb 65f 58f
6:00am 1ft 3s 13 16 mph 1015.7mb 65f 58f
5:00am 0.7ft 3s 11 13 mph 1015.3mb 65f 58f
4:00am 0.7ft 2s 9 11 mph 1014.8mb 65f 59f
3:00am 0.3ft 2s 9
mph
1014.5mb 65f 59f
2:00am 0.3ft 3s 7 9 mph 1014.5mb 64f 59f
1:00am 0.3ft 6s 7 9 mph 1014.2mb 64f 60f
12:00am 0.3ft 3s 4 7 mph 1014.1mb 64f 60f
Sun 07/20 11:00pm 0.3ft 3s 4
mph
1013.9mb 64f 60f
10:00pm 0.3ft 5s 4
mph
1013.9mb 65f 60f
9:00pm 0.3ft 6s 4
mph
1013.8mb 65f 60f
8:00pm 0.3ft 2s 4 7 mph 1013.7mb 65f 61f
7:00pm 0.7ft 2s 7
mph
1013.6mb 65f 60f
6:00pm 0.3ft 6s 7 9 mph 1013.6mb 65f 60f
5:00pm 0.3ft 4s 9 11 mph 1013.7mb 65f 60f
4:00pm 0.3ft 5s 9 11 mph 1013.8mb 65f 60f
3:00pm 0.3ft 3s 4 7 mph 1014mb 65f 60f
2:00pm 0.7ft 4s 7 9 mph 1014.2mb 65f 59f
1:00pm 0.7ft 3s 11 13 mph 1014.3mb 65f 58f
12:00pm 0.7ft 2s 7
mph
1014.3mb 65f 59f
11:00am 1ft 3s 7 9 mph 1014.2mb 65f 60f
10:00am 1.3ft 3s 9 13 mph 1013.8mb 65f 60f
9:00am 1.6ft 4s 9 13 mph 1013.7mb 65f 60f
8:00am 1.6ft 4s 11 13 mph 1013.4mb 65f 60f
7:00am 1.6ft 4s 16 18 mph 1013.1mb 65f 60f
6:00am 2ft 4s 16 18 mph 1012.9mb 65f 60f
5:00am 2ft 4s 16 18 mph 1012.4mb 65f 60f
4:00am 2ft 4s 18
mph
1011.9mb 65f 60f
3:00am 2.5ft 4s 18 20 mph 1011.8mb 65f 61f
2:00am 2.5ft 4s 20 22 mph 1011.7mb 65f 61f
1:00am 2.5ft 4s 25 29 mph 1011.2mb 65f 62f
12:00am 2ft 4s 22 27 mph 1011.3mb 65f 62f
Sat 07/19 11:00pm 1.3ft 2s 18 20 mph 1011.3mb 66f 63f
10:00pm 1ft 3s 16 18 mph 1011.3mb 66f 63f
9:00pm 0.7ft 4s 13
mph
1011.2mb 66f 65f
8:00pm 1ft 4s 7 9 mph 1011.3mb 66f 66f
7:00pm 1.3ft 3s 7 9 mph 1011.5mb 66f 66f
6:00pm 1.6ft 4s 13 16 mph 1011.8mb 65f 65f
5:00pm 2ft 4s 16 20 mph 1012.1mb 65f 64f
4:00pm 2.5ft 4s 18 20 mph 1012.5mb 66f 64f
3:00pm 2.5ft 4s 18 22 mph 1012.5mb 65f 64f
2:00pm 2.5ft 4s 20 22 mph 1012.8mb 65f 63f
1:00pm 2.5ft 4s 20 25 mph 1013mb 65f 62f
12:00pm 2.5ft 4s 22 27 mph 1013.2mb 65f 62f
11:00am 2.5ft 4s 22 29 mph 1013.2mb 65f 61f
10:00am 2.5ft 4s 22 27 mph 1012.8mb 65f 62f
9:00am 2.5ft 4s 22 27 mph 1013mb 64f 61f
8:00am 3ft 4s 22 25 mph 1012.9mb 63f 61f
7:00am 3.5ft 5s 22 29 mph 1013mb 63f 61f
6:00am 3.5ft 4s 25 31 mph 1013.2mb 63f 61f
5:00am 3.5ft 4s 25 29 mph 1013.1mb 64f 61f
4:00am 3ft 4s 22 27 mph 1013.6mb 65f 62f
3:00am 3ft 4s 22 27 mph 1013.8mb 65f 62f
2:00am 2.5ft 3s 22 27 mph 1014.1mb 66f 62f
1:00am 1.3ft 3s 18 20 mph 1014.5mb 66f 62f
12:00am 0.7ft 3s 13 16 mph 1015.1mb 66f 62f
Fri 07/18 11:00pm 0.7ft 3s 9 11 mph 1015.2mb 66f 63f
10:00pm 1ft 3s  -  mph 1015.7mb 66f 64f
9:00pm 1ft 3s  -  4 mph 1015.7mb 66f 65f
8:00pm 1.3ft 3s 11 13 mph 1015.6mb 66f 65f
7:00pm 1.3ft 3s 13 16 mph 1015.3mb 66f 64f
6:00pm 1.3ft 3s 13 16 mph 1015.8mb 66f 64f
5:00pm 1.3ft 3s 13 16 mph 1016.3mb 66f 64f
4:00pm 1ft 3s 13 16 mph 1016.8mb 66f 63f